CMA CGM Verlaine — DASO — position and weather

sailwx.info

Track history (hours):
 
Tides and Currents Weather Stations Pressure Air Temp Water Temp Dewpoint Dewpoint Depression Visibility Wind Speed Wind Dir Waves Ship Positions

CMA CGM Verlaine

Last reported at 2014-Aug-20 13:06 UTC. Time now 2014-Aug-20 16:38 UTC.
Position N 37°56' W 008°51'.

Length 300 m; beam 40 m; draft 14.5 m.

Type: Ship. MMSI: 211378820.

Date/timePositionNaut miles runAvg speedWind from/ knotsBaromVisibWave heightAir tempDewpointWater temp
2014-Aug-20 13:06N 37°56' W 008°51'3 0.7
2014-Aug-20 08:25N 37°53' W 008°51'0 0.0
2014-Aug-20 05:32N 37°53' W 008°51'0 0.0
2014-Aug-20 03:28N 37°53' W 008°51'0 0.0
2014-Aug-20 02:04N 37°53' W 008°51'0 0.0
2014-Aug-20 01:27N 37°53' W 008°51'0 0.0
2014-Aug-19 20:10N 37°53' W 008°51'8 2.1
2014-Aug-19 16:33N 37°54' W 009°01'76315.6
2014-Aug-17 15:33N 39°17' W 025°11'1716.6
2014-Aug-17 14:33N 39°17' W 025°33'5217.3
2014-Aug-17 11:33N 39°17' W 026°40'1818.0
2014-Aug-17 10:33N 39°17' W 027°03'1817.9
2014-Aug-17 09:33N 39°17' W 027°26'1818.1
2014-Aug-17 08:34N 39°17' W 027°49'1818.0
2014-Aug-17 07:33N 39°17' W 028°13'1817.8
2014-Aug-17 06:34N 39°17' W 028°36'1818.2
2014-Aug-17 05:33N 39°16' W 028°59'1817.8
2014-Aug-17 04:33N 39°16' W 029°22'1817.8
2014-Aug-17 03:33N 39°15' W 029°45'1817.7
2014-Aug-17 02:33N 39°14' W 030°08'2117.7
2014-Aug-17 01:23N 39°13' W 030°35'1517.6
2014-Aug-17 00:32N 39°11' W 030°54'  
Track history (hours):
 
Tides and Currents Weather Stations Pressure Air Temp Water Temp Dewpoint Dewpoint Depression Visibility Wind Speed Wind Dir Waves Ship Positions

CMA CGM Verlaine

Last reported at 2014-Aug-20 13:06 UTC. Time now 2014-Aug-20 16:38 UTC.
Position N 37°56' W 008°51'.

Length 300 m; beam 40 m; draft 14.5 m.

Type: Ship. MMSI: 211378820.

Date/timePositionNaut miles runAvg speedWind from/ knotsBaromVisibWave heightAir tempDewpointWater temp
2014-Aug-20 13:06N 37°56' W 008°51'3 0.7
2014-Aug-20 08:25N 37°53' W 008°51'0 0.0
2014-Aug-20 05:32N 37°53' W 008°51'0 0.0
2014-Aug-20 03:28N 37°53' W 008°51'0 0.0
2014-Aug-20 02:04N 37°53' W 008°51'0 0.0
2014-Aug-20 01:27N 37°53' W 008°51'0 0.0
2014-Aug-19 20:10N 37°53' W 008°51'8 2.1
2014-Aug-19 16:33N 37°54' W 009°01'76315.6
2014-Aug-17 15:33N 39°17' W 025°11'1716.6
2014-Aug-17 14:33N 39°17' W 025°33'5217.3
2014-Aug-17 11:33N 39°17' W 026°40'1818.0
2014-Aug-17 10:33N 39°17' W 027°03'1817.9
2014-Aug-17 09:33N 39°17' W 027°26'1818.1
2014-Aug-17 08:34N 39°17' W 027°49'1818.0
2014-Aug-17 07:33N 39°17' W 028°13'1817.8
2014-Aug-17 06:34N 39°17' W 028°36'1818.2
2014-Aug-17 05:33N 39°16' W 028°59'1817.8
2014-Aug-17 04:33N 39°16' W 029°22'1817.8
2014-Aug-17 03:33N 39°15' W 029°45'1817.7
2014-Aug-17 02:33N 39°14' W 030°08'2117.7
2014-Aug-17 01:23N 39°13' W 030°35'1517.6
2014-Aug-17 00:32N 39°11' W 030°54'  

Dump ship's entire track history